Dades meteomassalio
Diari Summary for Febrer 6, 2017 Units:  English    Metric   Both
« Previous Day
Next Day »
Diari Semanal Mensual Anual Personalitzat
  Maxima: Minima: Mijana:
Temperatura: TemperatureC °F 6.5 °F 10.4 °F
Rosada: DewpointC °F 0.7 °F 4.5 °F
Humitat: Humidity % 62 % 67 %
Velocitat del vent: WindSpeedKMH mph 18.5 mph 39.3 mph
Racha vent: WindSpeedGustKMH mph - -
Vent:- - NW
Pressio: PressurehPa in 1019.2 in -
Pluja: 0.0 in    
Historical Graphs
 
 
Tabular Data for Febrer 6, 2017
Time Temperature Dew Point Pressure Wind Wind Speed Wind Gust Humidity Rainfall Rate (Hourly) solar Conditions
TemperatureC °F DewpointC °F PressurehPa in Calm     Humidity % HourlyPrecipMM in SolarRadiationWatts/m^2 W/m2 Conditions
00:03 7.2 °F 0.7 °F 1022.2 in NW 46.3 mph 46.3 mph 63 % 0.0 in 0.0 W/m2 RA
00:08 7.3 °F 0.7 °F 1022.2 in NW 46.3 mph 46.3 mph 63 % 0.0 in 0.0 W/m2 CLR
00:13 7.4 °F 0.8 °F 1021.9 in NW 46.3 mph 46.3 mph 63 % 0.0 in 0.0 W/m2 CLR
00:18 7.4 °F 0.8 °F 1021.9 in NW 48.1 mph 48.1 mph 63 % 0.0 in 0.0 W/m2 CLR
00:23 7.2 °F 0.8 °F 1021.9 in NW 46.3 mph 46.3 mph 64 % 0.0 in 0.0 W/m2 CLR
00:28 7.2 °F 1.1 °F 1022.2 in NW 41.8 mph 41.8 mph 65 % 0.0 in 0.0 W/m2 CLR
00:33 7.2 °F 1.1 °F 1022.2 in NW 38.9 mph 38.9 mph 65 % 0.0 in 0.0 W/m2 CLR
00:38 7.2 °F 1.1 °F 1022.2 in NW 42.6 mph 42.6 mph 65 % 0.0 in 0.0 W/m2 CLR
00:43 7.2 °F 1.2 °F 1022.2 in NW 35.4 mph 35.4 mph 66 % 0.0 in 0.0 W/m2 CLR
00:48 7.1 °F 1.1 °F 1022.2 in NW 44.4 mph 44.4 mph 66 % 0.0 in 0.0 W/m2 CLR
00:53 7.1 °F 1.2 °F 1022.6 in NW 44.4 mph 44.4 mph 66 % 0.0 in 0.0 W/m2 CLR
00:58 7.1 °F 1.2 °F 1022.6 in NNW 42.6 mph 42.6 mph 66 % 0.0 in 0.0 W/m2 CLR
01:03 7.1 °F 1.3 °F 1022.6 in NW 48.1 mph 48.1 mph 67 % 0.0 in 0.0 W/m2 CLR
01:08 7.0 °F 1.3 °F 1022.6 in NW 33.8 mph 33.8 mph 67 % 0.0 in 0.0 W/m2 CLR
01:13 6.8 °F 1.3 °F 1022.6 in NW 40.2 mph 40.2 mph 68 % 0.0 in 0.0 W/m2 CLR
01:18 6.9 °F 1.4 °F 1022.6 in NW 31.5 mph 31.5 mph 68 % 0.0 in 0.0 W/m2 CLR
01:23 7.0 °F 1.5 °F 1022.6 in NW 31.5 mph 31.5 mph 68 % 0.0 in 0.0 W/m2 CLR
01:28 7.0 °F 1.5 °F 1022.6 in NW 38.9 mph 38.9 mph 68 % 0.0 in 0.0 W/m2 CLR
01:33 7.1 °F 1.3 °F 1022.6 in NW 33.3 mph 33.3 mph 67 % 0.0 in 0.0 W/m2 CLR
01:38 7.1 °F 1.6 °F 1022.6 in NW 35.2 mph 35.2 mph 68 % 0.0 in 0.0 W/m2 CLR
01:43 7.0 °F 1.3 °F 1022.2 in NW 42.6 mph 42.6 mph 67 % 0.0 in 0.0 W/m2 CLR
01:48 6.9 °F 1.4 °F 1022.6 in NW 29.6 mph 29.6 mph 68 % 0.0 in 0.0 W/m2 CLR
01:53 6.9 °F 1.4 °F 1022.6 in NW 38.6 mph 38.6 mph 68 % 0.0 in 0.0 W/m2 CLR
01:58 6.9 °F 1.4 °F 1022.6 in NW 42.6 mph 42.6 mph 68 % 0.0 in 0.0 W/m2 CLR
02:03 6.9 °F 1.6 °F 1022.6 in NW 35.2 mph 35.2 mph 69 % 0.0 in 0.0 W/m2 CLR
02:08 6.9 °F 1.7 °F 1022.6 in NW 42.6 mph 42.6 mph 69 % 0.0 in 0.0 W/m2 CLR
02:13 7.1 °F 1.6 °F 1022.9 in NW 42.6 mph 42.6 mph 68 % 0.0 in 0.0 W/m2
02:18 7.1 °F 1.7 °F 1022.9 in NW 31.5 mph 31.5 mph 69 % 0.0 in 0.0 W/m2 CLR
02:23 7.1 °F 1.8 °F 1022.9 in NW 50.0 mph 50.0 mph 69 % 0.0 in 0.0 W/m2 CLR
02:28 7.1 °F 1.7 °F 1022.9 in NW 33.3 mph 33.3 mph 69 % 0.0 in 0.0 W/m2 CLR
02:33 7.1 °F 1.8 °F 1022.9 in NW 62.9 mph 62.9 mph 69 % 0.0 in 0.0 W/m2
02:38 7.2 °F 1.9 °F 1022.9 in NW 55.5 mph 55.5 mph 69 % 0.0 in 0.0 W/m2 CLR
02:43 7.2 °F 1.9 °F 1022.9 in NW 55.5 mph 55.5 mph 69 % 0.0 in 0.0 W/m2 CLR
02:48 7.2 °F 2.1 °F 1022.9 in NW 54.7 mph 54.7 mph 70 % 0.0 in 0.0 W/m2 CLR
02:53 7.1 °F 2.0 °F 1022.9 in NW 46.3 mph 46.3 mph 70 % 0.0 in 0.0 W/m2 CLR
02:58 7.0 °F 1.9 °F 1022.9 in NW 40.7 mph 40.7 mph 70 % 0.0 in 0.0 W/m2 CLR
03:03 7.0 °F 2.1 °F 1022.9 in NW 46.3 mph 46.3 mph 71 % 0.0 in 0.0 W/m2 CLR
03:08 6.9 °F 1.8 °F 1023.2 in NW 44.4 mph 44.4 mph 70 % 0.0 in 0.0 W/m2 CLR
03:14 6.9 °F 2.1 °F 1023.2 in NW 37.0 mph 37.0 mph 71 % 0.0 in 0.0 W/m2 CLR
03:19 6.9 °F 2.0 °F 1023.2 in NW 40.7 mph 40.7 mph 71 % 0.0 in 0.0 W/m2 CLR
03:24 7.0 °F 2.1 °F 1023.6 in NW 53.7 mph 53.7 mph 71 % 0.0 in 0.0 W/m2 CLR
03:29 6.9 °F 2.1 °F 1023.6 in NW 40.7 mph 40.7 mph 71 % 0.0 in 0.0 W/m2 CLR
03:34 6.9 °F 2.0 °F 1023.6 in NW 41.8 mph 41.8 mph 71 % 0.0 in 0.0 W/m2 CLR
03:39 6.8 °F 2.1 °F 1023.6 in NW 37.0 mph 37.0 mph 72 % 0.0 in 0.0 W/m2 CLR
03:44 6.7 °F 2.0 °F 1023.6 in NW 32.2 mph 32.2 mph 72 % 0.0 in 0.0 W/m2 CLR
03:49 6.7 °F 2.0 °F 1023.6 in NW 35.4 mph 35.4 mph 72 % 0.0 in 0.0 W/m2 CLR
03:54 6.6 °F 1.9 °F 1023.2 in NW 31.5 mph 31.5 mph 72 % 0.0 in 0.0 W/m2 CLR
03:59 6.5 °F 1.8 °F 1023.6 in NW 38.9 mph 38.9 mph 72 % 0.0 in 0.0 W/m2 CLR
04:04 6.5 °F 1.8 °F 1023.2 in WNW 33.3 mph 33.3 mph 72 % 0.0 in 0.0 W/m2 CLR
04:09 6.5 °F 1.8 °F 1023.2 in NW 24.1 mph 24.1 mph 72 % 0.0 in 0.0 W/m2 CLR
04:14 6.6 °F 1.7 °F 1023.2 in NW 41.8 mph 41.8 mph 71 % 0.0 in 0.0 W/m2 CLR
04:19 6.7 °F 1.8 °F 1023.2 in NW 44.4 mph 44.4 mph 71 % 0.0 in 0.0 W/m2 CLR
04:24 6.8 °F 1.9 °F 1023.6 in NW 42.6 mph 42.6 mph 71 % 0.0 in 0.0 W/m2 CLR
04:29 6.8 °F 1.7 °F 1023.6 in NW 42.6 mph 42.6 mph 70 % 0.0 in 0.0 W/m2 CLR
04:34 6.9 °F 1.8 °F 1023.6 in NW 38.9 mph 38.9 mph 70 % 0.0 in 0.0 W/m2 CLR
04:44 6.9 °F 1.8 °F 1023.6 in NW 35.2 mph 35.2 mph 70 % 0.0 in 0.0 W/m2 CLR
04:49 6.9 °F 1.8 °F 1023.9 in NW 42.6 mph 42.6 mph 70 % 0.0 in 0.0 W/m2 CLR
04:54 7.0 °F 1.9 °F 1023.9 in NW 37.0 mph 37.0 mph 70 % 0.0 in 0.0 W/m2 CLR
04:59 7.1 °F 1.7 °F 1023.9 in NW 35.2 mph 35.2 mph 69 % 0.0 in 0.0 W/m2 CLR
05:04 7.1 °F 1.7 °F 1023.6 in NW 31.5 mph 31.5 mph 69 % 0.0 in 0.0 W/m2 CLR
05:09 7.1 °F 1.8 °F 1023.9 in NW 46.3 mph 46.3 mph 69 % 0.0 in 0.0 W/m2 CLR
05:14 7.1 °F 1.8 °F 1023.6 in NW 33.3 mph 33.3 mph 69 % 0.0 in 0.0 W/m2 CLR
05:19 7.2 °F 1.7 °F 1023.6 in NW 42.6 mph 42.6 mph 68 % 0.0 in 0.0 W/m2 CLR
05:24 7.2 °F 1.7 °F 1023.9 in NW 35.2 mph 35.2 mph 68 % 0.0 in 0.0 W/m2 CLR
05:29 7.2 °F 1.7 °F 1023.6 in NNW 40.7 mph 40.7 mph 68 % 0.0 in 0.0 W/m2 CLR
05:34 7.2 °F 1.7 °F 1023.6 in NNW 38.6 mph 38.6 mph 68 % 0.0 in 0.0 W/m2 CLR
05:39 7.2 °F 1.7 °F 1023.6 in NW 48.1 mph 48.1 mph 68 % 0.0 in 0.0 W/m2 CLR
05:44 7.2 °F 1.7 °F 1023.6 in NW 50.0 mph 50.0 mph 68 % 0.0 in 0.0 W/m2 CLR
05:49 7.2 °F 1.7 °F 1023.9 in NW 53.7 mph 53.7 mph 68 % 0.0 in 0.0 W/m2 CLR
05:54 7.1 °F 1.8 °F 1023.9 in NW 44.4 mph 44.4 mph 69 % 0.0 in 0.0 W/m2 CLR
05:59 7.1 °F 1.8 °F 1023.9 in NW 46.3 mph 46.3 mph 69 % 0.0 in 0.0 W/m2 CLR
06:04 6.9 °F 1.7 °F 1023.9 in NW 37.0 mph 37.0 mph 69 % 0.0 in 0.0 W/m2 CLR
06:09 7.1 °F 1.7 °F 1023.9 in NW 40.7 mph 40.7 mph 69 % 0.0 in 0.0 W/m2 CLR
06:14 7.1 °F 1.7 °F 1023.9 in NW 42.6 mph 42.6 mph 69 % 0.0 in 0.0 W/m2 CLR
06:19 7.0 °F 1.9 °F 1023.9 in NW 35.2 mph 35.2 mph 70 % 0.0 in 0.0 W/m2 CLR
06:24 6.9 °F 1.8 °F 1023.9 in NW 42.6 mph 42.6 mph 70 % 0.0 in 0.0 W/m2 CLR
06:29 6.9 °F 1.8 °F 1024.3 in NW 35.2 mph 35.2 mph 70 % 0.0 in 0.0 W/m2 CLR
06:34 7.0 °F 2.1 °F 1024.3 in NW 35.2 mph 35.2 mph 71 % 0.0 in 0.0 W/m2 CLR
06:39 7.0 °F 1.9 °F 1024.3 in NW 38.9 mph 38.9 mph 70 % 0.0 in 0.0 W/m2 CLR
06:44 7.1 °F 1.9 °F 1024.6 in NW 35.2 mph 35.2 mph 70 % 0.0 in 0.0 W/m2 CLR
06:49 7.1 °F 2.0 °F 1024.6 in NW 29.0 mph 29.0 mph 70 % 0.0 in 0.0 W/m2 CLR
06:54 7.2 °F 2.1 °F 1024.6 in NW 22.5 mph 22.5 mph 70 % 0.0 in 0.0 W/m2 CLR
06:59 7.3 °F 1.9 °F 1024.6 in NW 33.3 mph 33.3 mph 69 % 0.0 in 0.0 W/m2 CLR
07:04 7.4 °F 2.1 °F 1024.6 in NW 25.9 mph 25.9 mph 69 % 0.0 in 0.0 W/m2 CLR
07:09 7.4 °F 2.1 °F 1024.6 in NW 27.8 mph 27.8 mph 69 % 0.0 in 0.0 W/m2 CLR
07:14 7.4 °F 1.9 °F 1024.6 in NW 22.5 mph 22.5 mph 68 % 0.0 in 0.0 W/m2 CLR
07:19 7.4 °F 1.9 °F 1024.6 in NW 38.9 mph 38.9 mph 68 % 0.0 in 0.0 W/m2 CLR
07:24 7.5 °F 1.9 °F 1024.6 in NW 35.2 mph 35.2 mph 68 % 0.0 in 0.0 W/m2 CLR
07:29 7.5 °F 1.9 °F 1024.6 in NW 31.5 mph 31.5 mph 68 % 0.0 in 0.0 W/m2 CLR
07:34 7.4 °F 1.9 °F 1024.6 in NW 24.1 mph 24.1 mph 68 % 0.0 in 0.0 W/m2 CLR
07:39 7.5 °F 2.2 °F 1024.6 in NW 31.5 mph 31.5 mph 69 % 0.0 in 0.0 W/m2 CLR
07:44 7.5 °F 2.2 °F 1024.6 in NW 35.2 mph 35.2 mph 69 % 0.0 in 0.0 W/m2 CLR
07:49 7.4 °F 2.1 °F 1024.6 in NW 38.9 mph 38.9 mph 69 % 0.0 in 0.0 W/m2 CLR
07:54 7.6 °F 2.1 °F 1024.6 in NW 42.6 mph 42.6 mph 68 % 0.0 in 0.0 W/m2 CLR
07:59 7.6 °F 1.9 °F 1024.3 in NW 35.2 mph 35.2 mph 67 % 0.0 in 0.0 W/m2 CLR
08:04 7.7 °F 1.9 °F 1024.3 in NW 40.7 mph 40.7 mph 67 % 0.0 in 0.0 W/m2 OVC
08:09 7.6 °F 1.9 °F 1024.3 in NW 43.4 mph 43.4 mph 67 % 0.0 in 5.0 W/m2 OVC
08:14 7.6 °F 1.8 °F 1024.3 in NW 31.5 mph 31.5 mph 67 % 0.0 in 5.0 W/m2 OVC
08:19 7.5 °F 1.8 °F 1024.3 in NW 35.2 mph 35.2 mph 67 % 0.0 in 9.0 W/m2 BKN
08:24 7.4 °F 1.9 °F 1024.3 in NW 38.9 mph 38.9 mph 68 % 0.0 in 14.0 W/m2 BKN
08:29 7.6 °F 2.0 °F 1023.9 in NW 42.6 mph 42.6 mph 68 % 0.0 in 19.0 W/m2 BKN
08:34 7.7 °F 1.9 °F 1023.9 in NW 44.4 mph 44.4 mph 67 % 0.0 in 26.0 W/m2 BKN
08:39 7.8 °F 2.1 °F 1023.9 in WNW 43.4 mph 43.4 mph 67 % 0.0 in 35.0 W/m2 BKN
08:45 7.8 °F 2.1 °F 1023.9 in NW 37.0 mph 37.0 mph 67 % 0.0 in 42.0 W/m2 BKN
08:50 7.8 °F 2.1 °F 1023.6 in NW 44.4 mph 44.4 mph 67 % 0.0 in 32.0 W/m2 BKN
08:55 7.8 °F 1.9 °F 1023.6 in NW 33.3 mph 33.3 mph 66 % 0.0 in 46.0 W/m2 BKN
09:00 7.9 °F 1.9 °F 1023.6 in NW 46.7 mph 46.7 mph 66 % 0.0 in 47.0 W/m2 BKN
09:05 7.9 °F 1.9 °F 1023.6 in NW 48.1 mph 48.1 mph 66 % 0.0 in 39.0 W/m2 BKN
09:10 7.8 °F 1.9 °F 1023.9 in NW 42.6 mph 42.6 mph 66 % 0.0 in 35.0 W/m2 BKN
09:15 7.8 °F 1.8 °F 1023.9 in NW 29.6 mph 29.6 mph 66 % 0.0 in 37.0 W/m2 BKN
09:20 7.7 °F 2.0 °F 1023.9 in NW 32.2 mph 32.2 mph 67 % 0.0 in 46.0 W/m2 BKN
09:25 7.7 °F 2.0 °F 1023.9 in WNW 25.7 mph 25.7 mph 67 % 0.0 in 49.0 W/m2 SCT
09:30 7.8 °F 2.1 °F 1023.9 in WNW 25.9 mph 25.9 mph 67 % 0.0 in 127.0 W/m2 SCT
09:35 8.1 °F 2.3 °F 1023.9 in WNW 24.1 mph 24.1 mph 67 % 0.0 in 148.0 W/m2 FEW
09:40 8.2 °F 2.7 °F 1023.9 in WNW 29.6 mph 29.6 mph 68 % 0.0 in 221.0 W/m2 CLR
09:45 8.4 °F 2.7 °F 1023.9 in WNW 40.7 mph 40.7 mph 67 % 0.0 in 225.0 W/m2 CLR
09:50 8.5 °F 2.3 °F 1023.9 in WNW 35.2 mph 35.2 mph 65 % 0.0 in 244.0 W/m2 CLR
09:55 8.6 °F 2.6 °F 1023.6 in WNW 31.5 mph 31.5 mph 66 % 0.0 in 227.0 W/m2 CLR
10:00 8.6 °F 2.6 °F 1023.6 in WNW 42.6 mph 42.6 mph 66 % 0.0 in 239.0 W/m2 CLR
10:05 8.6 °F 2.6 °F 1023.9 in NW 40.7 mph 40.7 mph 66 % 0.0 in 265.0 W/m2 CLR
10:10 8.7 °F 2.7 °F 1023.6 in WNW 31.5 mph 31.5 mph 66 % 0.0 in 287.0 W/m2 CLR
10:15 8.8 °F 3.1 °F 1023.6 in WNW 30.6 mph 30.6 mph 67 % 0.0 in 302.0 W/m2 CLR
10:20 8.9 °F 2.9 °F 1023.6 in WNW 35.2 mph 35.2 mph 66 % 0.0 in 309.0 W/m2 CLR
10:25 9.1 °F 2.8 °F 1023.6 in WNW 35.2 mph 35.2 mph 65 % 0.0 in 327.0 W/m2 CLR
10:30 9.1 °F 2.9 °F 1023.2 in WNW 40.7 mph 40.7 mph 65 % 0.0 in 345.0 W/m2 CLR
10:35 9.2 °F 3.0 °F 1023.2 in WNW 42.6 mph 42.6 mph 65 % 0.0 in 360.0 W/m2 CLR
10:40 9.3 °F 2.9 °F 1023.2 in WNW 46.3 mph 46.3 mph 64 % 0.0 in 371.0 W/m2 CLR
10:45 9.5 °F 3.2 °F 1023.2 in NW 42.6 mph 42.6 mph 65 % 0.0 in 381.0 W/m2 CLR
10:50 9.6 °F 3.1 °F 1022.9 in NW 48.1 mph 48.1 mph 64 % 0.0 in 378.0 W/m2 CLR
10:55 9.7 °F 3.4 °F 1022.9 in NW 45.1 mph 45.1 mph 65 % 0.0 in 397.0 W/m2 CLR
11:00 9.6 °F 3.3 °F 1023.2 in NW 31.5 mph 31.5 mph 65 % 0.0 in 408.0 W/m2 CLR
11:05 9.8 °F 3.5 °F 1022.9 in NW 31.5 mph 31.5 mph 65 % 0.0 in 420.0 W/m2 CLR
11:10 9.7 °F 3.2 °F 1022.9 in NW 44.4 mph 44.4 mph 64 % 0.0 in 427.0 W/m2 CLR
11:15 9.7 °F 3.4 °F 1022.9 in NW 46.3 mph 46.3 mph 65 % 0.0 in 441.0 W/m2 CLR
11:20 9.8 °F 3.6 °F 1022.9 in NW 43.4 mph 43.4 mph 65 % 0.0 in 445.0 W/m2 CLR
11:25 9.9 °F 3.6 °F 1022.9 in NW 44.4 mph 44.4 mph 65 % 0.0 in 429.0 W/m2 CLR
11:30 9.9 °F 3.6 °F 1022.9 in NW 37.0 mph 37.0 mph 65 % 0.0 in 462.0 W/m2 CLR
11:35 10.0 °F 3.7 °F 1022.9 in NW 37.0 mph 37.0 mph 65 % 0.0 in 471.0 W/m2 CLR
11:40 10.3 °F 4.0 °F 1023.2 in NW 18.5 mph 18.5 mph 65 % 0.0 in 471.0 W/m2 CLR
11:45 10.4 °F 3.7 °F 1023.2 in NW 48.1 mph 48.1 mph 63 % 0.0 in 487.0 W/m2 CLR
11:50 10.3 °F 4.1 °F 1023.2 in NW 42.6 mph 42.6 mph 65 % 0.0 in 492.0 W/m2 CLR
11:55 10.5 °F 3.9 °F 1023.2 in NW 42.6 mph 42.6 mph 64 % 0.0 in 497.0 W/m2 CLR
12:00 10.5 °F 4.2 °F 1022.9 in NW 42.6 mph 42.6 mph 65 % 0.0 in 506.0 W/m2 CLR
12:05 10.4 °F 3.9 °F 1022.9 in NW 46.3 mph 46.3 mph 64 % 0.0 in 415.0 W/m2 CLR
12:10 10.4 °F 3.9 °F 1022.9 in NW 44.4 mph 44.4 mph 64 % 0.0 in 524.0 W/m2 CLR
12:15 10.5 °F 4.2 °F 1022.6 in NW 35.2 mph 35.2 mph 65 % 0.0 in 512.0 W/m2 CLR
12:20 10.7 °F 4.2 °F 1022.6 in NW 46.3 mph 46.3 mph 64 % 0.0 in 512.0 W/m2 CLR
12:25 10.9 °F 4.6 °F 1022.2 in NW 31.5 mph 31.5 mph 65 % 0.0 in 522.0 W/m2 CLR
12:30 11.2 °F 4.6 °F 1022.2 in NW 42.6 mph 42.6 mph 64 % 0.0 in 531.0 W/m2 CLR
12:35 11.2 °F 4.9 °F 1022.2 in NW 37.0 mph 37.0 mph 65 % 0.0 in 538.0 W/m2 CLR
12:40 11.2 °F 4.9 °F 1021.9 in NW 42.6 mph 42.6 mph 65 % 0.0 in 541.0 W/m2 CLR
12:45 11.4 °F 4.8 °F 1021.9 in NW 42.6 mph 42.6 mph 64 % 0.0 in 557.0 W/m2 CLR
12:50 11.5 °F 4.9 °F 1021.9 in NW 38.9 mph 38.9 mph 64 % 0.0 in 545.0 W/m2 CLR
12:55 11.6 °F 5.0 °F 1021.6 in NW 33.3 mph 33.3 mph 64 % 0.0 in 545.0 W/m2 CLR
13:00 11.6 °F 5.2 °F 1021.6 in NW 46.7 mph 46.7 mph 65 % 0.0 in 548.0 W/m2 CLR
13:05 11.6 °F 5.0 °F 1021.6 in NW 46.3 mph 46.3 mph 64 % 0.0 in 547.0 W/m2 CLR
13:10 11.9 °F 5.1 °F 1021.6 in NW 38.9 mph 38.9 mph 63 % 0.0 in 548.0 W/m2 CLR
13:15 12.0 °F 5.6 °F 1021.2 in NW 37.0 mph 37.0 mph 65 % 0.0 in 547.0 W/m2 CLR
13:20 12.1 °F 5.5 °F 1020.9 in NW 42.6 mph 42.6 mph 64 % 0.0 in 548.0 W/m2 CLR
13:22 12.2 °F 5.6 °F 1020.9 in NW 44.4 mph 44.4 mph 64 % 0.0 in 548.0 W/m2 CLR
13:27 12.2 °F 5.6 °F 1020.9 in NW 44.4 mph 44.4 mph 64 % 0.0 in 548.0 W/m2 CLR
13:32 12.3 °F 5.5 °F 1020.9 in NW 50.0 mph 50.0 mph 63 % 0.0 in 547.0 W/m2 CLR
13:37 12.4 °F 5.6 °F 1020.5 in NW 37.0 mph 37.0 mph 63 % 0.0 in 550.0 W/m2 CLR
13:42 12.7 °F 6.1 °F 1020.5 in NW 37.0 mph 37.0 mph 64 % 0.0 in 550.0 W/m2 CLR
13:47 12.8 °F 5.7 °F 1020.5 in NW 44.4 mph 44.4 mph 62 % 0.0 in 540.0 W/m2 CLR
13:57 13.2 °F 6.3 °F 1020.2 in NW 42.6 mph 42.6 mph 63 % 0.0 in 555.0 W/m2 CLR
14:02 13.3 °F 6.4 °F 1020.2 in NW 33.8 mph 33.8 mph 63 % 0.0 in 533.0 W/m2 CLR
14:07 13.3 °F 6.2 °F 1020.2 in NW 42.6 mph 42.6 mph 62 % 0.0 in 524.0 W/m2 CLR
14:12 13.4 °F 6.3 °F 1020.2 in NW 46.3 mph 46.3 mph 62 % 0.0 in 445.0 W/m2 CLR
14:17 13.2 °F 6.3 °F 1019.9 in NW 43.4 mph 43.4 mph 63 % 0.0 in 355.0 W/m2 CLR
14:22 13.4 °F 6.3 °F 1019.9 in NW 49.9 mph 49.9 mph 62 % 0.0 in 573.0 W/m2 CLR
14:27 13.6 °F 6.7 °F 1019.9 in NW 50.0 mph 50.0 mph 63 % 0.0 in 478.0 W/m2 CLR
14:32 13.6 °F 6.4 °F 1019.9 in NW 59.5 mph 59.5 mph 62 % 0.0 in 531.0 W/m2 CLR
14:42 13.7 °F 6.7 °F 1019.9 in NW 40.7 mph 40.7 mph 63 % 0.0 in 515.0 W/m2 CLR
14:47 13.9 °F 6.8 °F 1019.5 in NW 46.3 mph 46.3 mph 62 % 0.0 in 487.0 W/m2 CLR
14:52 13.9 °F 6.8 °F 1019.5 in NW 42.6 mph 42.6 mph 62 % 0.0 in 471.0 W/m2 CLR
14:57 14.1 °F 6.9 °F 1019.5 in NW 55.5 mph 55.5 mph 62 % 0.0 in 468.0 W/m2 CLR
15:02 14.1 °F 6.9 °F 1019.5 in NW 50.0 mph 50.0 mph 62 % 0.0 in 381.0 W/m2 CLR
15:07 13.9 °F 6.9 °F 1019.5 in NW 50.0 mph 50.0 mph 63 % 0.0 in 308.0 W/m2 CLR
15:12 13.6 °F 6.9 °F 1019.2 in WNW 46.3 mph 46.3 mph 64 % 0.0 in 236.0 W/m2 CLR
15:17 13.6 °F 7.1 °F 1019.2 in NW 45.1 mph 45.1 mph 65 % 0.0 in 264.0 W/m2 CLR
15:22 13.5 °F 7.1 °F 1019.5 in NW 38.9 mph 38.9 mph 65 % 0.0 in 248.0 W/m2 CLR
15:27 13.5 °F 6.8 °F 1019.5 in NW 53.7 mph 53.7 mph 64 % 0.0 in 246.0 W/m2 CLR
15:32 13.6 °F 7.2 °F 1019.5 in NW 40.7 mph 40.7 mph 65 % 0.0 in 278.0 W/m2 CLR
15:37 13.8 °F 7.4 °F 1019.5 in NW 31.5 mph 31.5 mph 65 % 0.0 in 299.0 W/m2 CLR
15:42 13.9 °F 7.4 °F 1019.5 in NW 46.7 mph 46.7 mph 65 % 0.0 in 297.0 W/m2 CLR
15:47 14.0 °F 7.1 °F 1019.5 in NW 38.9 mph 38.9 mph 63 % 0.0 in 290.0 W/m2 CLR
15:53 14.1 °F 7.4 °F 1019.5 in NW 48.1 mph 48.1 mph 64 % 0.0 in 343.0 W/m2 CLR
15:58 14.3 °F 7.6 °F 1019.2 in NW 33.3 mph 33.3 mph 64 % 0.0 in 325.0 W/m2 CLR
16:03 14.3 °F 7.4 °F 1019.5 in NW 42.6 mph 42.6 mph 63 % 0.0 in 355.0 W/m2 CLR
16:08 14.3 °F 7.4 °F 1019.5 in NW 46.3 mph 46.3 mph 63 % 0.0 in 396.0 W/m2 CLR
16:13 14.3 °F 7.4 °F 1019.5 in NW 40.7 mph 40.7 mph 63 % 0.0 in 336.0 W/m2 CLR
16:18 14.3 °F 7.4 °F 1019.5 in NW 53.7 mph 53.7 mph 63 % 0.0 in 376.0 W/m2 CLR
16:23 14.3 °F 7.4 °F 1019.5 in NW 50.0 mph 50.0 mph 63 % 0.0 in 323.0 W/m2 CLR
16:28 14.3 °F 7.6 °F 1019.5 in NW 46.3 mph 46.3 mph 64 % 0.0 in 281.0 W/m2 CLR
16:33 14.3 °F 7.6 °F 1019.5 in NW 51.8 mph 51.8 mph 64 % 0.0 in 295.0 W/m2 CLR
16:38 14.2 °F 7.5 °F 1019.5 in NW 37.0 mph 37.0 mph 64 % 0.0 in 274.0 W/m2 CLR
16:43 14.1 °F 7.4 °F 1019.5 in NW 50.0 mph 50.0 mph 64 % 0.0 in 262.0 W/m2 CLR
16:48 14.1 °F 7.6 °F 1019.5 in NW 54.7 mph 54.7 mph 65 % 0.0 in 251.0 W/m2 CLR
16:53 14.1 °F 7.6 °F 1019.5 in NW 44.4 mph 44.4 mph 65 % 0.0 in 100.0 W/m2 CLR
16:58 14.0 °F 7.5 °F 1019.5 in NW 42.6 mph 42.6 mph 65 % 0.0 in 223.0 W/m2 CLR
17:03 13.9 °F 7.4 °F 1019.5 in NW 40.7 mph 40.7 mph 65 % 0.0 in 211.0 W/m2 CLR
17:08 13.9 °F 7.7 °F 1019.5 in NW 55.5 mph 55.5 mph 66 % 0.0 in 190.0 W/m2 CLR
17:13 13.9 °F 7.4 °F 1019.5 in NW 42.6 mph 42.6 mph 65 % 0.0 in 167.0 W/m2 CLR
17:18 13.9 °F 7.6 °F 1019.2 in NW 44.4 mph 44.4 mph 66 % 0.0 in 139.0 W/m2 CLR
17:23 13.9 °F 7.6 °F 1019.5 in NW 59.2 mph 59.2 mph 66 % 0.0 in 105.0 W/m2 CLR
17:28 13.8 °F 7.6 °F 1019.5 in NW 44.4 mph 44.4 mph 66 % 0.0 in 86.0 W/m2 CLR
17:33 13.7 °F 7.4 °F 1019.5 in NW 40.7 mph 40.7 mph 66 % 0.0 in 65.0 W/m2 SCT
17:38 13.5 °F 7.5 °F 1019.5 in NW 48.1 mph 48.1 mph 67 % 0.0 in 26.0 W/m2 BKN
17:43 13.4 °F 7.4 °F 1019.5 in NW 50.0 mph 50.0 mph 67 % 0.0 in 21.0 W/m2 BKN
17:48 13.3 °F 7.6 °F 1019.9 in NW 35.2 mph 35.2 mph 68 % 0.0 in 21.0 W/m2 BKN
17:53 13.4 °F 7.6 °F 1019.9 in NW 53.7 mph 53.7 mph 68 % 0.0 in 19.0 W/m2 BKN
17:58 13.3 °F 7.6 °F 1019.9 in NW 40.7 mph 40.7 mph 68 % 0.0 in 18.0 W/m2 BKN
18:03 13.3 °F 7.6 °F 1019.9 in NW 51.8 mph 51.8 mph 68 % 0.0 in 14.0 W/m2 BKN
18:08 13.4 °F 7.6 °F 1019.9 in NW 42.6 mph 42.6 mph 68 % 0.0 in 14.0 W/m2 BKN
18:13 13.4 °F 7.7 °F 1019.9 in NW 37.0 mph 37.0 mph 68 % 0.0 in 9.0 W/m2 BKN
18:18 13.4 °F 7.6 °F 1019.9 in NW 40.7 mph 40.7 mph 68 % 0.0 in 7.0 W/m2 BKN
18:23 13.3 °F 7.6 °F 1020.2 in NW 57.4 mph 57.4 mph 68 % 0.0 in 0.0 W/m2 OVC
18:28 13.4 °F 7.6 °F 1020.2 in NW 44.4 mph 44.4 mph 68 % 0.0 in 0.0 W/m2 OVC
18:33 13.3 °F 7.6 °F 1020.2 in NW 40.7 mph 40.7 mph 68 % 0.0 in 0.0 W/m2 CLR
18:38 13.3 °F 7.6 °F 1020.5 in NW 46.3 mph 46.3 mph 68 % 0.0 in 0.0 W/m2 CLR
18:43 13.4 °F 7.6 °F 1020.5 in NW 38.9 mph 38.9 mph 68 % 0.0 in 0.0 W/m2 CLR
18:48 13.4 °F 7.6 °F 1020.5 in NW 48.3 mph 48.3 mph 68 % 0.0 in 0.0 W/m2 CLR
18:53 13.3 °F 7.8 °F 1020.9 in NW 42.6 mph 42.6 mph 69 % 0.0 in 0.0 W/m2 CLR
18:58 13.4 °F 7.8 °F 1020.9 in NW 31.5 mph 31.5 mph 69 % 0.0 in 0.0 W/m2 CLR
19:03 13.3 °F 7.9 °F 1020.9 in NW 51.5 mph 51.5 mph 70 % 0.0 in 0.0 W/m2 CLR
19:08 13.3 °F 8.0 °F 1020.9 in NW 50.0 mph 50.0 mph 70 % 0.0 in 0.0 W/m2 CLR
19:13 13.4 °F 7.8 °F 1020.9 in NW 53.7 mph 53.7 mph 69 % 0.0 in 0.0 W/m2 CLR
19:18 13.4 °F 8.0 °F 1020.9 in NW 45.1 mph 45.1 mph 70 % 0.0 in 0.0 W/m2 CLR
19:23 13.3 °F 7.9 °F 1020.9 in NW 38.9 mph 38.9 mph 70 % 0.0 in 0.0 W/m2 CLR
19:28 13.2 °F 7.8 °F 1020.9 in WNW 38.9 mph 38.9 mph 70 % 0.0 in 0.0 W/m2 CLR
19:29 13.2 °F 7.8 °F 1020.9 in NW 38.9 mph 38.9 mph 70 % 0.0 in 0.0 W/m2 CLR
19:34 13.2 °F 7.8 °F 1020.9 in NW 42.6 mph 42.6 mph 70 % 0.0 in 0.0 W/m2 CLR
19:39 13.0 °F 7.7 °F 1020.9 in WNW 40.7 mph 40.7 mph 70 % 0.0 in 0.0 W/m2 CLR
19:44 12.9 °F 7.6 °F 1020.9 in WNW 40.7 mph 40.7 mph 70 % 0.0 in 0.0 W/m2 CLR
19:49 12.9 °F 7.6 °F 1020.9 in WNW 44.4 mph 44.4 mph 70 % 0.0 in 0.0 W/m2 CLR
19:54 12.8 °F 7.5 °F 1021.2 in WNW 33.3 mph 33.3 mph 70 % 0.0 in 0.0 W/m2 CLR
19:59 12.8 °F 7.4 °F 1021.2 in WNW 35.4 mph 35.4 mph 70 % 0.0 in 0.0 W/m2 CLR
20:04 12.8 °F 7.4 °F 1021.6 in WNW 33.8 mph 33.8 mph 70 % 0.0 in 0.0 W/m2 CLR
20:09 12.8 °F 7.5 °F 1021.6 in West 35.2 mph 35.2 mph 70 % 0.0 in 0.0 W/m2 CLR
20:14 12.8 °F 7.5 °F 1021.6 in West 42.6 mph 42.6 mph 70 % 0.0 in 0.0 W/m2 CLR
20:19 12.9 °F 7.6 °F 1021.6 in West 42.6 mph 42.6 mph 70 % 0.0 in 0.0 W/m2 CLR
20:24 12.9 °F 7.6 °F 1021.6 in West 31.5 mph 32.0 mph 70 % 0.0 in 0.0 W/m2 CLR
20:29 12.9 °F 7.6 °F 1021.6 in West 50.0 mph 50.0 mph 70 % 0.0 in 0.0 W/m2 CLR
20:34 12.8 °F 7.5 °F 1021.2 in WNW 37.0 mph 37.0 mph 70 % 0.0 in 0.0 W/m2 CLR
20:39 12.9 °F 7.6 °F 1021.2 in WNW 42.6 mph 42.6 mph 70 % 0.0 in 0.0 W/m2 CLR
20:44 13.0 °F 7.7 °F 1021.2 in WNW 40.7 mph 40.7 mph 70 % 0.0 in 0.0 W/m2 CLR
20:49 13.1 °F 7.5 °F 1021.6 in West 35.2 mph 35.2 mph 69 % 0.0 in 0.0 W/m2 CLR
20:55 13.2 °F 7.6 °F 1021.6 in WNW 50.0 mph 50.0 mph 69 % 0.0 in 0.0 W/m2 CLR
21:00 13.3 °F 7.5 °F 1021.6 in West 38.9 mph 38.9 mph 68 % 0.0 in 0.0 W/m2 CLR
21:05 13.4 °F 7.7 °F 1021.6 in West 51.8 mph 51.8 mph 68 % 0.0 in 0.0 W/m2 CLR
21:10 13.3 °F 7.6 °F 1021.6 in WNW 37.0 mph 37.0 mph 68 % 0.0 in 0.0 W/m2 CLR
21:15 13.3 °F 7.6 °F 1021.9 in WNW 31.5 mph 34.6 mph 68 % 0.0 in 0.0 W/m2 CLR
21:20 13.3 °F 7.5 °F 1021.9 in WNW 29.6 mph 29.6 mph 68 % 0.0 in 0.0 W/m2 CLR
21:25 13.2 °F 7.7 °F 1021.9 in WNW 24.1 mph 24.1 mph 69 % 0.0 in 0.0 W/m2 CLR
21:30 13.3 °F 7.6 °F 1021.9 in WNW 33.3 mph 33.3 mph 68 % 0.0 in 0.0 W/m2 CLR
21:35 13.3 °F 7.6 °F 1022.2 in WNW 22.2 mph 22.2 mph 68 % 0.0 in 0.0 W/m2 CLR
21:40 13.4 °F 7.4 °F 1022.2 in West 25.9 mph 25.9 mph 67 % 0.0 in 0.0 W/m2 CLR
21:45 13.3 °F 7.3 °F 1022.2 in West 18.5 mph 18.5 mph 67 % 0.0 in 0.0 W/m2 CLR
21:50 13.3 °F 7.5 °F 1022.2 in West 25.9 mph 25.9 mph 68 % 0.0 in 0.0 W/m2 CLR
21:55 13.3 °F 7.5 °F 1022.2 in West 24.1 mph 24.1 mph 68 % 0.0 in 0.0 W/m2 CLR
22:00 13.3 °F 7.5 °F 1022.2 in West 18.5 mph 18.5 mph 68 % 0.0 in 0.0 W/m2 CLR
22:05 13.2 °F 7.4 °F 1022.2 in West 18.5 mph 18.5 mph 68 % 0.0 in 0.0 W/m2 CLR
22:10 13.2 °F 7.4 °F 1022.2 in West 24.1 mph 24.1 mph 68 % 0.0 in 0.0 W/m2 CLR
22:15 13.3 °F 7.5 °F 1022.2 in West 25.9 mph 25.9 mph 68 % 0.0 in 0.0 W/m2 CLR
22:20 13.3 °F 7.5 °F 1022.2 in West 29.0 mph 29.0 mph 68 % 0.0 in 0.0 W/m2 CLR
22:25 13.2 °F 7.4 °F 1022.2 in West 22.2 mph 22.2 mph 68 % 0.0 in 0.0 W/m2 CLR
22:30 13.1 °F 7.3 °F 1022.2 in West 20.9 mph 20.9 mph 68 % 0.0 in 0.0 W/m2 CLR
22:35 13.1 °F 7.6 °F 1022.2 in West 20.4 mph 20.4 mph 69 % 0.0 in 0.0 W/m2 CLR
22:40 13.1 °F 7.6 °F 1022.2 in West 22.2 mph 22.2 mph 69 % 0.0 in 0.0 W/m2 CLR
22:45 13.2 °F 7.6 °F 1022.2 in West 24.1 mph 24.1 mph 69 % 0.0 in 0.0 W/m2 CLR
22:50 13.2 °F 7.6 °F 1022.2 in West 30.6 mph 30.6 mph 69 % 0.0 in 0.0 W/m2 CLR
22:55 13.2 °F 7.7 °F 1021.9 in West 27.8 mph 27.8 mph 69 % 0.0 in 0.0 W/m2 CLR
23:00 13.3 °F 7.5 °F 1021.9 in West 24.1 mph 24.1 mph 68 % 0.0 in 0.0 W/m2 CLR
23:05 13.6 °F 7.6 °F 1021.9 in West 35.2 mph 35.2 mph 67 % 0.0 in 0.0 W/m2 CLR
23:10 13.7 °F 7.4 °F 1021.9 in West 29.6 mph 29.6 mph 66 % 0.0 in 0.0 W/m2 CLR
23:15 13.7 °F 7.5 °F 1021.9 in West 31.5 mph 31.5 mph 66 % 0.0 in 0.0 W/m2 CLR
23:20 13.7 °F 7.4 °F 1021.9 in West 42.6 mph 42.6 mph 66 % 0.0 in 0.0 W/m2 CLR
23:25 13.7 °F 7.4 °F 1021.9 in West 37.0 mph 37.0 mph 66 % 0.0 in 0.0 W/m2 CLR
23:30 13.6 °F 7.6 °F 1021.9 in West 31.5 mph 31.5 mph 67 % 0.0 in 0.0 W/m2 CLR
23:35 13.6 °F 7.6 °F 1021.9 in West 35.2 mph 35.2 mph 67 % 0.0 in 0.0 W/m2 CLR
23:40 13.6 °F 7.6 °F 1021.9 in West 33.8 mph 33.8 mph 67 % 0.0 in 0.0 W/m2 CLR
23:45 13.7 °F 7.4 °F 1021.9 in West 31.5 mph 31.5 mph 66 % 0.0 in 0.0 W/m2 CLR
23:50 13.5 °F 7.5 °F 1021.9 in WNW 22.2 mph 22.2 mph 67 % 0.0 in 0.0 W/m2 CLR
23:55 13.3 °F 7.3 °F 1021.9 in WNW 25.7 mph 25.7 mph 67 % 0.0 in 0.0 W/m2 CLR
Lo Temps de Massalio
Compliments of Weather Underground - 1.25 mb